Time;durP1;ratioP1;P1;durP2;ratioP2;P2;SDS_P1;SDS_P2;PMS_P1;PMS_P2;Temp;Humidity;BMP_temperature;BMP_pressure;BME280_temperature;BME280_humidity;BME280_pressure;Samples;Min_cycle;Max_cycle;Signal;HPM_P1;HPM_P2
2022/06/02 00:00:15;;;;;;;0.80;0.70;;;;;;;;;;5094859;28;20442;-85
2022/06/02 00:02:59;;;;;;;0.70;0.60;;;;;;;;;;5083077;28;20455;-84
2022/06/02 00:05:28;;;;;;;0.70;0.60;;;;;;;;;;5058490;28;20453;-84
2022/06/02 00:08:00;;;;;;;0.70;0.70;;;;;;;;;;5077601;28;20442;-84
2022/06/02 00:10:32;;;;;;;0.70;0.60;;;;;;;;;;5093255;28;20492;-85
2022/06/02 00:13:01;;;;;;;0.70;0.60;;;;;;;;;;5095507;28;20475;-83
2022/06/02 00:15:33;;;;;;;0.70;0.60;;;;;;;;;;5091687;28;20477;-84
2022/06/02 00:18:03;;;;;;;0.70;0.70;;;;;;;;;;5095556;28;20450;-84
2022/06/02 00:20:37;;;;;;;0.70;0.70;;;;;;;;;;5078006;28;20511;-84
2022/06/02 00:23:14;;;;;;;0.70;0.53;;;;;;;;;;5094468;28;20479;-83
2022/06/02 00:25:46;;;;;;;0.70;0.60;;;;;;;;;;5078431;28;20474;-83
2022/06/02 00:28:19;;;;;;;0.70;0.63;;;;;;;;;;5094550;28;20454;-83
2022/06/02 00:30:48;;;;;;;0.70;0.70;;;;;;;;;;5078415;28;20480;-84
2022/06/02 00:33:21;;;;;;;0.70;0.60;;;;;;;;;;5095110;28;20484;-83
2022/06/02 00:35:52;;;;;;;0.70;0.60;;;;;;;;;;5095850;28;20477;-85
2022/06/02 00:38:21;;;;;;;0.70;0.60;;;;;;;;;;5091967;28;20460;-83
2022/06/02 00:40:48;;;;;;;0.70;0.60;;;;;;;;;;5094397;28;20500;-83
2022/06/02 00:43:22;;;;;;;1.57;1.47;;;;;;;;;;5076778;28;20439;-83
2022/06/02 00:45:51;;;;;;;0.70;0.70;;;;;;;;;;5074672;28;20520;-84
2022/06/02 00:48:21;;;;;;;0.70;0.60;;;;;;;;;;5075583;28;20589;-84
2022/06/02 00:50:55;;;;;;;0.70;0.60;;;;;;;;;;5095107;28;20523;-84
2022/06/02 00:53:41;;;;;;;0.70;0.60;;;;;;;;;;5094161;28;20434;-85
2022/06/02 00:59:19;;;;;;;0.70;0.63;;;;;;;;;;5075494;28;20924;-84
2022/06/02 01:01:48;;;;;;;0.70;0.60;;;;;;;;;;5074252;28;20474;-84
2022/06/02 01:04:17;;;;;;;0.70;0.60;;;;;;;;;;5074507;28;20442;-85
2022/06/02 01:06:59;;;;;;;0.70;0.60;;;;;;;;;;5074433;28;21060;-84
2022/06/02 01:09:37;;;;;;;0.70;0.60;;;;;;;;;;5073726;28;20529;-85
2022/06/02 01:12:11;;;;;;;0.70;0.60;;;;;;;;;;5074932;28;20445;-85
2022/06/02 01:14:53;;;;;;;0.80;0.70;;;;;;;;;;5074276;28;20808;-84
2022/06/02 01:17:24;;;;;;;0.70;0.70;;;;;;;;;;5079191;28;20449;-84
2022/06/02 01:19:58;;;;;;;0.80;0.60;;;;;;;;;;5088129;28;20482;-84
2022/06/02 01:22:43;;;;;;;0.70;0.60;;;;;;;;;;5074631;28;20450;-83
2022/06/02 01:25:30;;;;;;;0.70;0.60;;;;;;;;;;5086122;28;20423;-84
2022/06/02 01:28:14;;;;;;;0.73;0.70;;;;;;;;;;5056167;28;20465;-84
2022/06/02 01:30:55;;;;;;;0.70;0.60;;;;;;;;;;5093664;28;20454;-83
2022/06/02 01:33:31;;;;;;;0.70;0.60;;;;;;;;;;5094662;28;20760;-84
2022/06/02 01:36:06;;;;;;;0.70;0.60;;;;;;;;;;5093588;28;20466;-84
2022/06/02 01:38:40;;;;;;;0.70;0.60;;;;;;;;;;5076424;28;21008;-84
2022/06/02 01:41:14;;;;;;;0.70;0.60;;;;;;;;;;5080634;28;20496;-85
2022/06/02 01:43:51;;;;;;;0.70;0.70;;;;;;;;;;5094085;28;20445;-85
2022/06/02 01:46:31;;;;;;;0.70;0.60;;;;;;;;;;5093158;28;20477;-85
2022/06/02 01:49:06;;;;;;;0.70;0.60;;;;;;;;;;5087287;28;20450;-84
2022/06/02 01:51:41;;;;;;;0.70;0.60;;;;;;;;;;5093029;28;20988;-83
2022/06/02 01:54:15;;;;;;;0.70;0.60;;;;;;;;;;5076427;28;20443;-83
2022/06/02 01:57:04;;;;;;;0.70;0.60;;;;;;;;;;5093036;28;20432;-83
2022/06/02 01:59:42;;;;;;;0.70;0.53;;;;;;;;;;5091444;28;20434;-83
2022/06/02 02:02:18;;;;;;;0.73;0.70;;;;;;;;;;5093352;28;20438;-84
2022/06/02 02:05:04;;;;;;;0.70;0.70;;;;;;;;;;5076935;28;20238;-84
2022/06/02 02:07:36;;;;;;;0.70;0.60;;;;;;;;;;5080183;28;21002;-84
2022/06/02 02:10:08;;;;;;;0.70;0.60;;;;;;;;;;5084241;28;20461;-83
2022/06/02 02:12:51;;;;;;;0.70;0.60;;;;;;;;;;5088139;28;20450;-84
2022/06/02 02:15:26;;;;;;;0.70;0.60;;;;;;;;;;5085931;28;20497;-83
2022/06/02 02:18:19;;;;;;;0.70;0.60;;;;;;;;;;5073299;28;20635;-84
2022/06/02 02:21:10;;;;;;;0.70;0.60;;;;;;;;;;5026498;28;20526;-83
2022/06/02 02:23:41;;;;;;;0.70;0.60;;;;;;;;;;5072538;28;20457;-83
2022/06/02 02:26:11;;;;;;;0.70;0.60;;;;;;;;;;5056075;28;20188;-83
2022/06/02 02:28:44;;;;;;;0.70;0.60;;;;;;;;;;5055727;28;20294;-83
2022/06/02 02:31:18;;;;;;;0.70;0.70;;;;;;;;;;5056146;28;20498;-83
2022/06/02 02:33:50;;;;;;;0.70;0.70;;;;;;;;;;5072611;28;20608;-83
2022/06/02 02:36:21;;;;;;;0.70;0.60;;;;;;;;;;5072860;28;20472;-82
2022/06/02 02:38:51;;;;;;;0.70;0.70;;;;;;;;;;5055576;28;20477;-82
2022/06/02 02:41:22;;;;;;;0.70;0.60;;;;;;;;;;5086867;28;20463;-82
2022/06/02 02:43:52;;;;;;;0.70;0.60;;;;;;;;;;5071757;28;20537;-83
2022/06/02 02:46:22;;;;;;;0.70;0.70;;;;;;;;;;5072154;28;20304;-82
2022/06/02 02:48:53;;;;;;;0.70;0.60;;;;;;;;;;5076865;28;20199;-82
2022/06/02 02:51:30;;;;;;;0.70;0.60;;;;;;;;;;5083366;28;20579;-82
2022/06/02 02:53:59;;;;;;;0.70;0.60;;;;;;;;;;5075468;28;20713;-83
2022/06/02 02:56:29;;;;;;;0.70;0.60;;;;;;;;;;5092658;28;20437;-82
2022/06/02 02:58:57;;;;;;;0.70;0.60;;;;;;;;;;5074590;28;20999;-82
2022/06/02 03:01:27;;;;;;;0.70;0.60;;;;;;;;;;5071913;28;20478;-82
2022/06/02 03:04:06;;;;;;;0.80;0.75;;;;;;;;;;5071417;28;20825;-82
2022/06/02 03:06:36;;;;;;;0.70;0.63;;;;;;;;;;5073647;28;20294;-82
2022/06/02 03:09:08;;;;;;;0.70;0.60;;;;;;;;;;5080950;28;20192;-82
2022/06/02 03:11:44;;;;;;;0.70;0.60;;;;;;;;;;5091317;28;20604;-82
2022/06/02 03:14:18;;;;;;;0.70;0.60;;;;;;;;;;5090739;28;20249;-82
2022/06/02 03:16:49;;;;;;;0.70;0.70;;;;;;;;;;5060227;28;20431;-82
2022/06/02 03:19:18;;;;;;;0.70;0.65;;;;;;;;;;5064609;28;20439;-82
2022/06/02 03:21:51;;;;;;;1.20;1.10;;;;;;;;;;5059499;28;20236;-82
2022/06/02 03:24:32;;;;;;;0.70;0.60;;;;;;;;;;5076635;28;20541;-82
2022/06/02 03:27:07;;;;;;;0.70;0.60;;;;;;;;;;5075492;28;20283;-82
2022/06/02 03:29:42;;;;;;;0.70;0.60;;;;;;;;;;5075230;28;20211;-83
2022/06/02 03:32:12;;;;;;;1.02;0.93;;;;;;;;;;5075545;28;20257;-82
2022/06/02 03:34:44;;;;;;;0.70;0.60;;;;;;;;;;5077613;28;20186;-82
2022/06/02 03:37:19;;;;;;;0.70;0.60;;;;;;;;;;5075856;28;20701;-82
2022/06/02 03:39:54;;;;;;;0.70;0.60;;;;;;;;;;5076624;28;20645;-82
2022/06/02 03:42:26;;;;;;;0.70;0.60;;;;;;;;;;5075967;28;20415;-82
2022/06/02 03:44:57;;;;;;;1.80;1.70;;;;;;;;;;5075401;28;20443;-82
2022/06/02 03:47:35;;;;;;;4.33;4.03;;;;;;;;;;5074863;28;20478;-83
2022/06/02 03:50:19;;;;;;;0.70;0.70;;;;;;;;;;5090643;28;20458;-82
2022/06/02 03:52:56;;;;;;;0.70;0.60;;;;;;;;;;5078387;28;20694;-82
2022/06/02 03:55:29;;;;;;;0.70;0.60;;;;;;;;;;5095322;28;20188;-82
2022/06/02 03:58:10;;;;;;;0.70;0.70;;;;;;;;;;5093922;28;20691;-82
2022/06/02 04:00:44;;;;;;;0.70;0.60;;;;;;;;;;5095423;28;20173;-82
2022/06/02 04:03:14;;;;;;;0.70;0.60;;;;;;;;;;5077914;28;20275;-82
2022/06/02 04:05:52;;;;;;;0.70;0.60;;;;;;;;;;5093488;28;20192;-82
2022/06/02 04:08:35;;;;;;;0.70;0.60;;;;;;;;;;5094586;28;20231;-82
2022/06/02 04:11:14;;;;;;;0.70;0.60;;;;;;;;;;5089207;28;20305;-82
2022/06/02 04:13:44;;;;;;;0.70;0.60;;;;;;;;;;5056501;28;20211;-84
2022/06/02 04:16:21;;;;;;;0.70;0.60;;;;;;;;;;5073993;28;20463;-82
2022/06/02 04:18:52;;;;;;;0.70;0.60;;;;;;;;;;5082521;28;20915;-83
2022/06/02 04:21:30;;;;;;;0.70;0.60;;;;;;;;;;5074748;28;20455;-84
2022/06/02 04:24:16;;;;;;;0.70;0.60;;;;;;;;;;5074191;28;20568;-83
2022/06/02 04:26:54;;;;;;;0.70;0.60;;;;;;;;;;5064116;28;20199;-83
2022/06/02 04:29:37;;;;;;;0.70;0.60;;;;;;;;;;5074838;28;20184;-83
2022/06/02 04:32:08;;;;;;;0.70;0.60;;;;;;;;;;5075640;28;20462;-83
2022/06/02 04:34:39;;;;;;;0.70;0.60;;;;;;;;;;5073747;28;20242;-84
2022/06/02 04:37:12;;;;;;;0.70;0.70;;;;;;;;;;5074051;28;20317;-83
2022/06/02 04:39:44;;;;;;;0.70;0.60;;;;;;;;;;5074714;28;20178;-84
2022/06/02 04:42:22;;;;;;;0.70;0.60;;;;;;;;;;5074418;28;20464;-83
2022/06/02 04:44:56;;;;;;;0.70;0.70;;;;;;;;;;5058231;28;20447;-83
2022/06/02 04:47:27;;;;;;;0.70;0.60;;;;;;;;;;5077226;28;20795;-83
2022/06/02 04:49:56;;;;;;;0.70;0.63;;;;;;;;;;5094572;28;20450;-83
2022/06/02 04:52:27;;;;;;;0.70;0.60;;;;;;;;;;5073910;28;20470;-83
2022/06/02 04:54:59;;;;;;;0.67;0.60;;;;;;;;;;5091406;28;20970;-82
2022/06/02 04:57:29;;;;;;;0.70;0.60;;;;;;;;;;5091312;28;20415;-83
2022/06/02 05:00:00;;;;;;;0.60;0.50;;;;;;;;;;5074369;28;20828;-83
2022/06/02 05:02:32;;;;;;;0.63;0.50;;;;;;;;;;5090721;28;20981;-83
2022/06/02 05:05:05;;;;;;;1.00;1.00;;;;;;;;;;5094280;28;20919;-82
2022/06/02 05:07:37;;;;;;;0.70;0.60;;;;;;;;;;5074118;28;20466;-83
2022/06/02 05:10:12;;;;;;;0.70;0.60;;;;;;;;;;5069100;28;20499;-84
2022/06/02 05:12:47;;;;;;;0.80;0.80;;;;;;;;;;5076432;28;20427;-82
2022/06/02 05:15:25;;;;;;;0.70;0.60;;;;;;;;;;5089469;28;20475;-82
2022/06/02 05:18:04;;;;;;;0.80;0.70;;;;;;;;;;5094042;28;20512;-83
2022/06/02 05:20:51;;;;;;;0.60;0.60;;;;;;;;;;5076919;28;20449;-83
2022/06/02 05:23:25;;;;;;;0.63;0.57;;;;;;;;;;5077030;28;20799;-82
2022/06/02 05:26:05;;;;;;;0.70;0.60;;;;;;;;;;5093616;28;20960;-83
2022/06/02 05:28:53;;;;;;;0.70;0.60;;;;;;;;;;5077203;28;20448;-83
2022/06/02 05:31:35;;;;;;;0.70;0.60;;;;;;;;;;5075670;28;20531;-82
2022/06/02 05:34:19;;;;;;;0.70;0.60;;;;;;;;;;5077110;28;20474;-82
2022/06/02 05:36:52;;;;;;;0.70;0.60;;;;;;;;;;5076732;28;20483;-82
2022/06/02 05:39:36;;;;;;;0.70;0.60;;;;;;;;;;5076902;28;20444;-83
2022/06/02 05:42:10;;;;;;;1.33;1.23;;;;;;;;;;5080281;28;20801;-82
2022/06/02 05:44:58;;;;;;;1.43;1.33;;;;;;;;;;5076754;28;20966;-82
2022/06/02 05:47:33;;;;;;;0.70;0.60;;;;;;;;;;5093273;28;20939;-80
2022/06/02 05:50:06;;;;;;;0.70;0.60;;;;;;;;;;5076101;28;20450;-81
2022/06/02 05:52:39;;;;;;;0.60;0.50;;;;;;;;;;5076696;28;20474;-81
2022/06/02 05:55:14;;;;;;;0.70;0.60;;;;;;;;;;5093819;28;20414;-80
2022/06/02 05:57:47;;;;;;;0.70;0.60;;;;;;;;;;5094494;28;20426;-80
2022/06/02 06:00:25;;;;;;;0.70;0.60;;;;;;;;;;5075828;28;20427;-80
2022/06/02 06:03:01;;;;;;;0.70;0.60;;;;;;;;;;5072517;28;20472;-79
2022/06/02 06:05:30;;;;;;;0.60;0.60;;;;;;;;;;5089562;28;20448;-81
2022/06/02 06:08:11;;;;;;;0.70;0.60;;;;;;;;;;5072492;28;20435;-80
2022/06/02 06:10:42;;;;;;;0.70;0.60;;;;;;;;;;5089368;28;20475;-78
2022/06/02 06:13:17;;;;;;;0.70;0.70;;;;;;;;;;5089373;28;20414;-78
2022/06/02 06:15:49;;;;;;;0.70;0.60;;;;;;;;;;5074208;28;20475;-80
2022/06/02 06:18:25;;;;;;;0.67;0.60;;;;;;;;;;5072770;28;20437;-80
2022/06/02 06:21:02;;;;;;;0.70;0.70;;;;;;;;;;5093791;28;21044;-79
2022/06/02 06:23:49;;;;;;;0.70;0.70;;;;;;;;;;5076918;28;20504;-79
2022/06/02 06:26:22;;;;;;;0.70;0.60;;;;;;;;;;5057070;28;20779;-80
2022/06/02 06:28:56;;;;;;;0.70;0.67;;;;;;;;;;5078508;28;20442;-79
2022/06/02 06:31:30;;;;;;;0.70;0.60;;;;;;;;;;5073711;28;20825;-79
2022/06/02 06:34:07;;;;;;;0.70;0.60;;;;;;;;;;5074041;28;20433;-80
2022/06/02 06:36:52;;;;;;;0.70;0.60;;;;;;;;;;5073898;28;20443;-79
2022/06/02 06:39:27;;;;;;;0.70;0.70;;;;;;;;;;5057767;28;20461;-80
2022/06/02 06:42:07;;;;;;;0.70;0.60;;;;;;;;;;5083025;28;20457;-80
2022/06/02 06:44:38;;;;;;;0.70;0.70;;;;;;;;;;5092293;28;20475;-79
2022/06/02 06:47:11;;;;;;;0.70;0.60;;;;;;;;;;5092612;28;20441;-79
2022/06/02 06:49:50;;;;;;;0.70;0.60;;;;;;;;;;5081773;28;20439;-80
2022/06/02 06:52:42;;;;;;;0.80;0.80;;;;;;;;;;5072401;28;20485;-80
2022/06/02 06:55:14;;;;;;;0.70;0.70;;;;;;;;;;5053302;28;20448;-80
2022/06/02 06:57:47;;;;;;;0.70;0.67;;;;;;;;;;5056348;28;20927;-79
2022/06/02 07:00:19;;;;;;;0.70;0.70;;;;;;;;;;5074773;28;20441;-80
2022/06/02 07:02:53;;;;;;;0.70;0.60;;;;;;;;;;5073804;28;20506;-79
2022/06/02 07:05:26;;;;;;;0.70;0.60;;;;;;;;;;5086730;28;20439;-79
2022/06/02 07:07:55;;;;;;;0.70;0.63;;;;;;;;;;5076567;28;20809;-80
2022/06/02 07:10:27;;;;;;;0.80;0.77;;;;;;;;;;5090469;28;20442;-80
2022/06/02 07:12:56;;;;;;;0.70;0.60;;;;;;;;;;5095066;28;20413;-79
2022/06/02 07:15:37;;;;;;;1.20;1.10;;;;;;;;;;5079749;28;20954;-77
2022/06/02 07:18:10;;;;;;;0.70;0.70;;;;;;;;;;5095639;28;20449;-78
2022/06/02 07:20:43;;;;;;;0.70;0.70;;;;;;;;;;5077907;28;20481;-79
2022/06/02 07:23:18;;;;;;;0.70;0.67;;;;;;;;;;5078833;28;20429;-79
2022/06/02 07:25:51;;;;;;;0.70;0.60;;;;;;;;;;5079069;28;20441;-79
2022/06/02 07:28:25;;;;;;;0.80;0.80;;;;;;;;;;5075435;28;20484;-79
2022/06/02 07:30:57;;;;;;;0.70;0.60;;;;;;;;;;5060274;28;20494;-79
2022/06/02 07:33:33;;;;;;;0.70;0.70;;;;;;;;;;5073963;28;20527;-79
2022/06/02 07:36:20;;;;;;;0.70;0.70;;;;;;;;;;5074569;28;20459;-79
2022/06/02 07:38:59;;;;;;;0.80;0.80;;;;;;;;;;5056573;28;20456;-80
2022/06/02 07:41:34;;;;;;;0.70;0.70;;;;;;;;;;5059950;28;20444;-79
2022/06/02 07:44:19;;;;;;;0.70;0.60;;;;;;;;;;5077042;28;20419;-79
2022/06/02 07:46:52;;;;;;;0.80;0.80;;;;;;;;;;5061374;28;20532;-79
2022/06/02 07:49:25;;;;;;;0.70;0.60;;;;;;;;;;5084372;28;20456;-79
2022/06/02 07:51:57;;;;;;;0.70;0.70;;;;;;;;;;5096906;28;20994;-79
2022/06/02 07:54:29;;;;;;;0.70;0.70;;;;;;;;;;5096412;28;20417;-80
2022/06/02 07:57:04;;;;;;;0.70;0.60;;;;;;;;;;5095004;28;20434;-78
2022/06/02 07:59:38;;;;;;;0.70;0.63;;;;;;;;;;5091862;28;20836;-79
2022/06/02 08:02:30;;;;;;;0.70;0.60;;;;;;;;;;5075422;28;20443;-77
2022/06/02 08:05:08;;;;;;;0.70;0.60;;;;;;;;;;5077779;28;20523;-78
2022/06/02 08:07:39;;;;;;;0.77;0.70;;;;;;;;;;5077720;28;20451;-80
2022/06/02 08:10:11;;;;;;;0.70;0.70;;;;;;;;;;5059354;28;20456;-78
2022/06/02 08:12:42;;;;;;;0.70;0.70;;;;;;;;;;5075589;28;20461;-79
2022/06/02 08:15:15;;;;;;;0.70;0.60;;;;;;;;;;5074779;28;20438;-79
2022/06/02 08:17:46;;;;;;;0.70;0.70;;;;;;;;;;5066685;28;20506;-79
2022/06/02 08:20:28;;;;;;;0.70;0.70;;;;;;;;;;5061663;28;20492;-79
2022/06/02 08:23:07;;;;;;;0.70;0.60;;;;;;;;;;5075887;28;20508;-79
2022/06/02 08:25:37;;;;;;;0.70;0.60;;;;;;;;;;5082087;28;20424;-79
2022/06/02 08:28:12;;;;;;;0.70;0.60;;;;;;;;;;5095790;28;20453;-79
2022/06/02 08:30:42;;;;;;;0.70;0.60;;;;;;;;;;5079548;28;20487;-80
2022/06/02 08:33:42;;;;;;;0.80;0.70;;;;;;;;;;5096440;28;20508;-78
2022/06/02 08:36:12;;;;;;;0.70;0.70;;;;;;;;;;5020759;28;20559;-79
2022/06/02 08:38:49;;;;;;;0.70;0.67;;;;;;;;;;5003729;28;20895;-79
2022/06/02 08:41:34;;;;;;;0.70;0.60;;;;;;;;;;5059182;28;20437;-79
2022/06/02 08:44:18;;;;;;;0.70;0.60;;;;;;;;;;5079215;28;20431;-79
2022/06/02 08:46:59;;;;;;;0.80;0.60;;;;;;;;;;5052437;28;20862;-79
2022/06/02 08:49:49;;;;;;;0.80;0.70;;;;;;;;;;5094482;28;20464;-78
2022/06/02 08:52:48;;;;;;;0.70;0.70;;;;;;;;;;5088302;28;20478;-78
2022/06/02 08:55:30;;;;;;;0.70;0.70;;;;;;;;;;5076815;28;20434;-79
2022/06/02 08:58:38;;;;;;;0.70;0.70;;;;;;;;;;5087871;28;20536;-78
2022/06/02 09:01:21;;;;;;;0.70;0.60;;;;;;;;;;5047235;28;20466;-79
2022/06/02 09:04:05;;;;;;;0.70;0.60;;;;;;;;;;5075771;28;20889;-78
2022/06/02 09:06:54;;;;;;;0.70;0.70;;;;;;;;;;5074135;28;20473;-77
2022/06/02 09:09:47;;;;;;;0.70;0.70;;;;;;;;;;5090385;28;20465;-79
2022/06/02 09:12:34;;;;;;;0.70;0.70;;;;;;;;;;5090288;28;20451;-78
2022/06/02 09:15:28;;;;;;;0.80;0.70;;;;;;;;;;5074508;28;20488;-79
2022/06/02 09:18:05;;;;;;;0.80;0.70;;;;;;;;;;5031112;28;20442;-77
2022/06/02 09:20:40;;;;;;;0.80;0.70;;;;;;;;;;5063359;28;20431;-78
2022/06/02 09:23:22;;;;;;;0.70;0.60;;;;;;;;;;5071947;28;20457;-78
2022/06/02 09:25:54;;;;;;;0.80;0.70;;;;;;;;;;5094238;28;20838;-78
2022/06/02 09:28:32;;;;;;;0.70;0.60;;;;;;;;;;5095147;28;20414;-78
2022/06/02 09:31:08;;;;;;;0.70;0.60;;;;;;;;;;5076194;28;20497;-78
2022/06/02 09:33:51;;;;;;;0.80;0.80;;;;;;;;;;5076625;28;20436;-77
2022/06/02 09:36:29;;;;;;;0.70;0.70;;;;;;;;;;5077126;28;20511;-77
2022/06/02 09:39:04;;;;;;;0.70;0.60;;;;;;;;;;5077172;28;20939;-78
2022/06/02 09:41:40;;;;;;;0.80;0.77;;;;;;;;;;5095026;28;20832;-80
2022/06/02 09:44:29;;;;;;;0.80;0.80;;;;;;;;;;5095456;28;20450;-79
2022/06/02 09:47:15;;;;;;;0.80;0.70;;;;;;;;;;5093908;28;20430;-79
2022/06/02 09:50:10;;;;;;;0.80;0.70;;;;;;;;;;5094850;28;20430;-80
2022/06/02 09:52:46;;;;;;;0.80;0.70;;;;;;;;;;5095507;28;20549;-79
2022/06/02 09:55:24;;;;;;;0.70;0.60;;;;;;;;;;5077611;28;20823;-79
2022/06/02 09:58:05;;;;;;;0.70;0.60;;;;;;;;;;5077024;28;20487;-79
2022/06/02 10:00:43;;;;;;;0.70;0.60;;;;;;;;;;5094798;28;20884;-78
2022/06/02 10:03:38;;;;;;;0.70;0.50;;;;;;;;;;5077185;28;20468;-79
2022/06/02 10:06:12;;;;;;;0.70;0.60;;;;;;;;;;5095792;28;20939;-79
2022/06/02 10:08:45;;;;;;;0.70;0.50;;;;;;;;;;5076054;28;20446;-81
2022/06/02 10:11:18;;;;;;;0.70;0.50;;;;;;;;;;5093971;28;20977;-79
2022/06/02 10:13:59;;;;;;;0.70;0.50;;;;;;;;;;5057898;28;20459;-80
2022/06/02 10:16:43;;;;;;;0.70;0.60;;;;;;;;;;5069010;28;20548;-80
2022/06/02 10:19:18;;;;;;;0.70;0.60;;;;;;;;;;5077221;28;20484;-80
2022/06/02 10:21:54;;;;;;;0.70;0.60;;;;;;;;;;5075596;28;20458;-80
2022/06/02 10:24:37;;;;;;;0.80;0.70;;;;;;;;;;5075640;28;20464;-79
2022/06/02 10:27:12;;;;;;;0.70;0.60;;;;;;;;;;5090285;28;20438;-81
2022/06/02 10:29:56;;;;;;;0.70;0.60;;;;;;;;;;5089583;28;20487;-80
2022/06/02 10:32:41;;;;;;;0.70;0.60;;;;;;;;;;5079626;28;20496;-80
2022/06/02 10:35:26;;;;;;;0.70;0.60;;;;;;;;;;5057418;28;20500;-80
2022/06/02 10:38:00;;;;;;;0.70;0.60;;;;;;;;;;5062627;28;20459;-80
2022/06/02 10:40:44;;;;;;;0.70;0.50;;;;;;;;;;5058747;28;20431;-79
2022/06/02 10:43:37;;;;;;;0.70;0.60;;;;;;;;;;5055519;28;20514;-81
2022/06/02 10:46:35;;;;;;;0.70;0.50;;;;;;;;;;5083752;28;20930;-81
2022/06/02 10:49:14;;;;;;;0.70;0.50;;;;;;;;;;5092847;28;20465;-82
2022/06/02 10:52:08;;;;;;;0.70;0.50;;;;;;;;;;5076156;28;20522;-80
2022/06/02 10:54:45;;;;;;;0.70;0.50;;;;;;;;;;5084383;28;20431;-80
2022/06/02 10:57:31;;;;;;;0.70;0.50;;;;;;;;;;5091874;28;20421;-80
2022/06/02 11:00:06;;;;;;;0.70;0.50;;;;;;;;;;5092455;28;20529;-81
2022/06/02 11:02:51;;;;;;;0.70;0.50;;;;;;;;;;5075106;28;20434;-81
2022/06/02 11:05:31;;;;;;;0.70;0.50;;;;;;;;;;5063746;28;20445;-82
2022/06/02 11:08:37;;;;;;;0.70;0.50;;;;;;;;;;5078963;28;20849;-82
2022/06/02 11:11:23;;;;;;;0.70;0.50;;;;;;;;;;5093738;28;20874;-82
2022/06/02 11:14:14;;;;;;;0.70;0.50;;;;;;;;;;5042918;28;20532;-82
2022/06/02 11:17:04;;;;;;;0.70;0.50;;;;;;;;;;4991331;28;20474;-82
2022/06/02 11:19:40;;;;;;;0.70;0.50;;;;;;;;;;5082871;28;20498;-83
2022/06/02 11:22:25;;;;;;;0.70;0.50;;;;;;;;;;5072128;28;20466;-82
2022/06/02 11:25:28;;;;;;;0.70;0.50;;;;;;;;;;5072684;28;20507;-82
2022/06/02 11:28:13;;;;;;;0.70;0.50;;;;;;;;;;5072214;28;20817;-80
2022/06/02 11:30:59;;;;;;;0.70;0.50;;;;;;;;;;5072240;28;20439;-82
2022/06/02 11:33:42;;;;;;;0.70;0.50;;;;;;;;;;5062990;28;20905;-80
2022/06/02 11:36:25;;;;;;;0.70;0.50;;;;;;;;;;5078111;28;20438;-79
2022/06/02 11:39:09;;;;;;;0.70;0.50;;;;;;;;;;5079076;28;20415;-80
2022/06/02 11:41:39;;;;;;;0.70;0.50;;;;;;;;;;5078968;28;20439;-78
2022/06/02 11:44:08;;;;;;;0.70;0.50;;;;;;;;;;5078675;28;20419;-79
2022/06/02 11:47:08;;;;;;;0.70;0.50;;;;;;;;;;5092105;28;20495;-79
2022/06/02 11:49:54;;;;;;;0.70;0.50;;;;;;;;;;5102309;28;20432;-79
2022/06/02 11:52:39;;;;;;;0.70;0.50;;;;;;;;;;5080256;28;20519;-80
2022/06/02 11:55:17;;;;;;;0.70;0.50;;;;;;;;;;5080242;28;20776;-79
2022/06/02 11:57:57;;;;;;;0.70;0.50;;;;;;;;;;5098019;28;20795;-80
2022/06/02 12:00:45;;;;;;;0.70;0.50;;;;;;;;;;5082040;28;20430;-80
2022/06/02 12:03:28;;;;;;;0.70;0.50;;;;;;;;;;5092032;28;20533;-78
2022/06/02 12:06:01;;;;;;;0.70;0.50;;;;;;;;;;5079010;28;20458;-81
2022/06/02 12:08:50;;;;;;;0.70;0.50;;;;;;;;;;5092803;28;20747;-80
2022/06/02 12:11:31;;;;;;;0.70;0.50;;;;;;;;;;5095630;28;20466;-80
2022/06/02 12:14:04;;;;;;;0.70;0.50;;;;;;;;;;5095442;28;20832;-81
2022/06/02 12:16:40;;;;;;;0.70;0.50;;;;;;;;;;5095423;28;20454;-79
2022/06/02 12:19:15;;;;;;;0.70;0.60;;;;;;;;;;5096480;28;20470;-79
2022/06/02 12:21:58;;;;;;;0.70;0.57;;;;;;;;;;5100413;28;20971;-79
2022/06/02 12:24:53;;;;;;;0.70;0.60;;;;;;;;;;5082688;28;20427;-78
2022/06/02 12:27:31;;;;;;;0.80;0.70;;;;;;;;;;5090697;28;20441;-79
2022/06/02 12:30:04;;;;;;;0.70;0.60;;;;;;;;;;5080544;28;20504;-79
2022/06/02 12:32:48;;;;;;;0.70;0.60;;;;;;;;;;5081089;28;20459;-79
2022/06/02 12:35:20;;;;;;;0.70;0.60;;;;;;;;;;5076539;28;20922;-77
2022/06/02 12:37:56;;;;;;;0.70;0.57;;;;;;;;;;5094671;28;20936;-79
2022/06/02 12:40:29;;;;;;;0.70;0.50;;;;;;;;;;5077844;28;20432;-83
2022/06/02 12:43:18;;;;;;;0.70;0.50;;;;;;;;;;5062731;28;20538;-78
2022/06/02 12:45:47;;;;;;;0.70;0.50;;;;;;;;;;5087350;28;20449;-78
2022/06/02 12:48:40;;;;;;;0.70;0.50;;;;;;;;;;5094727;28;20488;-78
2022/06/02 12:51:19;;;;;;;0.70;0.50;;;;;;;;;;5082901;28;20520;-77
2022/06/02 12:54:05;;;;;;;0.70;0.50;;;;;;;;;;5076066;28;20462;-80
2022/06/02 12:56:48;;;;;;;0.70;0.50;;;;;;;;;;5096701;28;20430;-79
2022/06/02 12:59:49;;;;;;;0.70;0.50;;;;;;;;;;5080417;28;20434;-78
2022/06/02 13:02:22;;;;;;;0.70;0.50;;;;;;;;;;5095922;28;20442;-79
2022/06/02 13:05:07;;;;;;;0.70;0.50;;;;;;;;;;5090923;28;20411;-79
2022/06/02 13:07:47;;;;;;;0.70;0.50;;;;;;;;;;5044508;28;20513;-79
2022/06/02 13:10:28;;;;;;;0.70;0.50;;;;;;;;;;5074843;28;20467;-81
2022/06/02 13:13:06;;;;;;;0.70;0.50;;;;;;;;;;5081084;28;20528;-81
2022/06/02 13:15:50;;;;;;;0.70;0.60;;;;;;;;;;5060346;28;20454;-79
2022/06/02 13:18:29;;;;;;;0.70;0.50;;;;;;;;;;5074523;28;20456;-81
2022/06/02 13:21:12;;;;;;;0.70;0.50;;;;;;;;;;5095746;28;20473;-79
2022/06/02 13:24:00;;;;;;;0.70;0.50;;;;;;;;;;5094701;28;20446;-80
2022/06/02 13:26:42;;;;;;;0.70;0.50;;;;;;;;;;5097407;28;20431;-78
2022/06/02 13:29:18;;;;;;;0.70;0.50;;;;;;;;;;5079276;28;20471;-80
2022/06/02 13:32:15;;;;;;;0.70;0.50;;;;;;;;;;5094729;28;20867;-79
2022/06/02 13:35:08;;;;;;;0.70;0.53;;;;;;;;;;5018990;28;20444;-78
2022/06/02 13:37:46;;;;;;;0.70;0.50;;;;;;;;;;5077479;28;20465;-79
2022/06/02 13:40:23;;;;;;;0.70;0.50;;;;;;;;;;5095298;28;20444;-79
2022/06/02 13:43:08;;;;;;;0.70;0.50;;;;;;;;;;5078025;28;20495;-76
2022/06/02 13:45:44;;;;;;;0.70;0.50;;;;;;;;;;5073290;28;20529;-82
2022/06/02 13:48:28;;;;;;;0.70;0.50;;;;;;;;;;5073389;28;20434;-79
2022/06/02 13:51:13;;;;;;;0.70;0.50;;;;;;;;;;5073823;28;20462;-79
2022/06/02 13:59:47;;;;;;;0.77;0.50;;;;;;;;;;5084507;28;20577;-81
2022/06/02 14:02:32;;;;;;;0.80;0.50;;;;;;;;;;5084718;28;20445;-79
2022/06/02 14:05:07;;;;;;;0.80;0.50;;;;;;;;;;5052474;28;20450;-80
2022/06/02 14:07:52;;;;;;;0.80;0.50;;;;;;;;;;5062359;28;20475;-79
2022/06/02 14:10:31;;;;;;;0.70;0.50;;;;;;;;;;5082323;28;20439;-79
2022/06/02 14:13:08;;;;;;;0.70;0.50;;;;;;;;;;5091027;28;20473;-80
2022/06/02 14:15:44;;;;;;;0.80;0.50;;;;;;;;;;5093437;28;20418;-79
2022/06/02 14:18:28;;;;;;;0.80;0.50;;;;;;;;;;5076344;28;20429;-79
2022/06/02 14:20:59;;;;;;;0.80;0.60;;;;;;;;;;5088915;28;20527;-78
2022/06/02 14:23:33;;;;;;;0.80;0.50;;;;;;;;;;5088727;28;20454;-79
2022/06/02 14:26:09;;;;;;;0.80;0.50;;;;;;;;;;5073404;28;20446;-79
2022/06/02 14:28:48;;;;;;;0.80;0.50;;;;;;;;;;5074087;28;20825;-78
2022/06/02 14:31:19;;;;;;;0.80;0.50;;;;;;;;;;5073500;28;20504;-78
2022/06/02 14:33:50;;;;;;;0.80;0.50;;;;;;;;;;5073893;28;20494;-77
2022/06/02 14:36:22;;;;;;;0.80;0.50;;;;;;;;;;5075947;28;20442;-80
2022/06/02 14:38:54;;;;;;;0.80;0.50;;;;;;;;;;5075048;28;20455;-76
2022/06/02 14:41:26;;;;;;;0.80;0.50;;;;;;;;;;5075960;28;20439;-78
2022/06/02 14:43:59;;;;;;;0.80;0.60;;;;;;;;;;5075743;28;20455;-78
2022/06/02 14:46:38;;;;;;;0.80;0.50;;;;;;;;;;5072235;28;20450;-77
2022/06/02 14:49:16;;;;;;;0.80;0.50;;;;;;;;;;5081532;28;20441;-80
2022/06/02 14:51:45;;;;;;;0.80;0.50;;;;;;;;;;5088237;28;20489;-77
2022/06/02 14:54:28;;;;;;;0.80;0.50;;;;;;;;;;5073386;28;20467;-81
2022/06/02 14:57:11;;;;;;;0.80;0.50;;;;;;;;;;5080632;28;20442;-77
2022/06/02 15:00:05;;;;;;;0.80;0.50;;;;;;;;;;5065015;28;20451;-81
2022/06/02 15:02:50;;;;;;;0.80;0.50;;;;;;;;;;5028789;28;20535;-78
2022/06/02 15:05:40;;;;;;;0.80;0.50;;;;;;;;;;5065626;28;21486;-78
2022/06/02 15:08:24;;;;;;;0.80;0.50;;;;;;;;;;5088776;28;20556;-80
2022/06/02 15:11:02;;;;;;;0.80;0.50;;;;;;;;;;5097700;28;21011;-83
2022/06/02 15:16:35;;;;;;;0.80;0.50;;;;;;;;;;5090357;28;20484;-83
2022/06/02 15:19:12;;;;;;;0.80;0.50;;;;;;;;;;5087573;28;20430;-81
2022/06/02 15:22:09;;;;;;;0.80;0.50;;;;;;;;;;5076458;28;21002;-82
2022/06/02 15:24:41;;;;;;;0.80;0.50;;;;;;;;;;5082734;28;20783;-83
2022/06/02 15:27:16;;;;;;;0.80;0.50;;;;;;;;;;5077529;28;20500;-85
2022/06/02 15:29:50;;;;;;;0.80;0.50;;;;;;;;;;5071472;28;20468;-82
2022/06/02 15:32:35;;;;;;;0.80;0.50;;;;;;;;;;5085511;28;20582;-81
2022/06/02 15:35:12;;;;;;;0.80;0.50;;;;;;;;;;5056525;28;20998;-83
2022/06/02 15:38:00;;;;;;;0.77;0.50;;;;;;;;;;5059511;28;20536;-82
2022/06/02 15:40:36;;;;;;;0.73;0.50;;;;;;;;;;5073400;28;20978;-84
2022/06/02 15:43:19;;;;;;;0.80;0.50;;;;;;;;;;5075710;28;20539;-84
2022/06/02 15:46:24;;;;;;;0.80;0.50;;;;;;;;;;5090676;28;20454;-82
2022/06/02 15:49:09;;;;;;;0.80;0.50;;;;;;;;;;5092131;28;20469;-84
2022/06/02 15:51:41;;;;;;;0.70;0.50;;;;;;;;;;5076568;28;20498;-83
2022/06/02 15:54:42;;;;;;;0.70;0.50;;;;;;;;;;5090434;28;20458;-82
2022/06/02 15:57:28;;;;;;;0.80;0.60;;;;;;;;;;5094158;28;20449;-84
2022/06/02 16:00:10;;;;;;;0.70;0.60;;;;;;;;;;5079006;28;20547;-83